San Beato — HBLC — position and weather

sailwx.info

Track history (hours):
 
Tides and Currents Weather Stations Pressure Air Temp Water Temp Dewpoint Dewpoint Depression Visibility Wind Speed Wind Dir Waves Ship Positions

San Beato

Last reported at 2017-Aug-26 15:00 UTC. Time now 2017-Sep-24 14:20 UTC.
Position N 28°01' W 016°21'.
Warning: this ship's position is 28 days out of date.

Length 110 m; draft 7.4 m.

Type: Tanker. MMSI: 269032000.

Date/timePositionNaut miles runAvg speedWind from/ knotsBaromVisibWave heightAir tempDewpointWater temp
2017-Aug-26 15:00N 28°01' W 016°21'1611.9
2017-Aug-26 13:38N 28°13' W 016°09'312.1
2017-Aug-26 13:25N 28°15' W 016°07'511.9
2017-Aug-26 13:00N 28°19' W 016°04'610.0
2017-Aug-26 12:27N 28°23' W 016°08'228 8.4
2017-Aug-25 09:15N 31°05' W 013°02'311.2
2017-Aug-25 09:00N 31°07' W 013°00'2011.1
2017-Aug-25 07:11N 31°21' W 012°43'511.3
2017-Aug-25 06:45N 31°25' W 012°39'311.3
2017-Aug-25 06:30N 31°27' W 012°37'4911.4
2017-Aug-25 02:15N 32°01' W 011°57'311.8
2017-Aug-25 02:00N 32°03' W 011°55'611.9
2017-Aug-25 01:30N 32°08' W 011°50'611.8
2017-Aug-25 01:00N 32°12' W 011°45'611.9
2017-Aug-25 00:30N 32°16' W 011°40'611.6
2017-Aug-25 00:00N 32°20' W 011°35'611.6
2017-Aug-24 23:30N 32°24' W 011°30'711.8
2017-Aug-24 22:56N 32°29' W 011°24'512.1
2017-Aug-24 22:30N 32°33' W 011°20'612.1
2017-Aug-24 22:00N 32°37' W 011°15'612.1
2017-Aug-24 21:30N 32°42' W 011°10'611.7
2017-Aug-24 21:00N 32°45' W 011°05'611.9
2017-Aug-24 20:28N 32°50' W 010°60'711.9
2017-Aug-24 19:52N 32°55' W 010°54'912.0
2017-Aug-24 19:07N 33°01' W 010°46'212.1
2017-Aug-24 18:59N 33°03' W 010°45'612.2
2017-Aug-24 18:30N 33°07' W 010°40'712.2
2017-Aug-24 17:56N 33°12' W 010°34'912.0
2017-Aug-24 17:13N 33°18' W 010°27'211.9
2017-Aug-24 17:00N 33°20' W 010°25'611.9
2017-Aug-24 16:30N 33°24' W 010°20'611.8
2017-Aug-24 16:00N 33°28' W 010°15'611.9
2017-Aug-24 15:29N 33°32' W 010°10'711.8
2017-Aug-24 14:55N 33°37' W 010°04'911.6
2017-Aug-24 14:11N 33°43' W 009°57'211.6
2017-Aug-24 14:00N 33°45' W 009°55'911.4
2017-Aug-24 13:15N 33°51' W 009°48'2 7.5
2017-Aug-24 13:00N 33°52' W 009°46'1610.7
2017-Aug-24 11:30N 34°04' W 009°33'910.7
2017-Aug-24 10:40N 34°10' W 009°25'310.9
2017-Aug-24 10:21N 34°12' W 009°22'510.8
2017-Aug-24 09:55N 34°16' W 009°18'510.9
2017-Aug-24 09:30N 34°19' W 009°14'610.8
2017-Aug-24 08:57N 34°23' W 009°09'510.6
2017-Aug-24 08:30N 34°26' W 009°05'810.8
2017-Aug-24 07:48N 34°32' W 008°59'510.8
2017-Aug-24 07:20N 34°35' W 008°54'710.9
2017-Aug-24 06:43N 34°40' W 008°48'1410.7
2017-Aug-24 05:23N 34°50' W 008°36'410.9
2017-Aug-24 05:00N 34°53' W 008°33'611.1
2017-Aug-24 04:30N 34°57' W 008°28'611.1
2017-Aug-24 04:00N 35°01' W 008°23'511.0
2017-Aug-24 03:30N 35°05' W 008°18'610.9
2017-Aug-24 02:59N 35°09' W 008°14'510.9
2017-Aug-24 02:30N 35°13' W 008°09'611.2
2017-Aug-24 02:00N 35°17' W 008°04'611.5
2017-Aug-24 01:29N 35°21' W 007°59'611.5
2017-Aug-24 01:00N 35°25' W 007°54'611.4
2017-Aug-24 00:29N 35°29' W 007°49'511.3
2017-Aug-24 00:00N 35°33' W 007°45'711.5
2017-Aug-23 23:25N 35°38' W 007°39'611.4
2017-Aug-23 22:55N 35°42' W 007°34'711.9
2017-Aug-23 22:23N 35°46' W 007°28'511.2
2017-Aug-23 21:56N 35°50' W 007°24'1911.3
2017-Aug-23 20:17N 36°03' W 007°08'  
2017-Aug-19 04:00N 36°35' W 006°20'0 0.0
2017-Aug-19 03:30N 36°35' W 006°20'253 5.0
2017-Aug-17 01:14N 36°38' W 001°05'412.1
2017-Aug-17 00:53N 36°39' W 000°60'1112.3
2017-Aug-17 00:01N 36°41' W 000°46'012.4
2017-Aug-16 23:59N 36°41' W 000°46'612.5
2017-Aug-16 23:29N 36°42' W 000°39'3512.4
2017-Aug-16 20:41N 36°50' E 000°04'312.2
2017-Aug-16 20:27N 36°50' E 000°07'712.3
2017-Aug-16 19:55N 36°52' E 000°15'511.9
2017-Aug-16 19:28N 36°53' E 000°22'511.4
2017-Aug-16 19:00N 36°54' E 000°28'611.3
2017-Aug-16 18:30N 36°55' E 000°35'2811.7
2017-Aug-16 16:04N 37°02' E 001°10'312.4
2017-Aug-16 15:50N 37°02' E 001°13'  
Track history (hours):
 
Tides and Currents Weather Stations Pressure Air Temp Water Temp Dewpoint Dewpoint Depression Visibility Wind Speed Wind Dir Waves Ship Positions

San Beato

Last reported at 2017-Aug-26 15:00 UTC. Time now 2017-Sep-24 14:20 UTC.
Position N 28°01' W 016°21'.
Warning: this ship's position is 28 days out of date.

Length 110 m; draft 7.4 m.

Type: Tanker. MMSI: 269032000.

Date/timePositionNaut miles runAvg speedWind from/ knotsBaromVisibWave heightAir tempDewpointWater temp
2017-Aug-26 15:00N 28°01' W 016°21'1611.9
2017-Aug-26 13:38N 28°13' W 016°09'312.1
2017-Aug-26 13:25N 28°15' W 016°07'511.9
2017-Aug-26 13:00N 28°19' W 016°04'610.0
2017-Aug-26 12:27N 28°23' W 016°08'228 8.4
2017-Aug-25 09:15N 31°05' W 013°02'311.2
2017-Aug-25 09:00N 31°07' W 013°00'2011.1
2017-Aug-25 07:11N 31°21' W 012°43'511.3
2017-Aug-25 06:45N 31°25' W 012°39'311.3
2017-Aug-25 06:30N 31°27' W 012°37'4911.4
2017-Aug-25 02:15N 32°01' W 011°57'311.8
2017-Aug-25 02:00N 32°03' W 011°55'611.9
2017-Aug-25 01:30N 32°08' W 011°50'611.8
2017-Aug-25 01:00N 32°12' W 011°45'611.9
2017-Aug-25 00:30N 32°16' W 011°40'611.6
2017-Aug-25 00:00N 32°20' W 011°35'611.6
2017-Aug-24 23:30N 32°24' W 011°30'711.8
2017-Aug-24 22:56N 32°29' W 011°24'512.1
2017-Aug-24 22:30N 32°33' W 011°20'612.1
2017-Aug-24 22:00N 32°37' W 011°15'612.1
2017-Aug-24 21:30N 32°42' W 011°10'611.7
2017-Aug-24 21:00N 32°45' W 011°05'611.9
2017-Aug-24 20:28N 32°50' W 010°60'711.9
2017-Aug-24 19:52N 32°55' W 010°54'912.0
2017-Aug-24 19:07N 33°01' W 010°46'212.1
2017-Aug-24 18:59N 33°03' W 010°45'612.2
2017-Aug-24 18:30N 33°07' W 010°40'712.2
2017-Aug-24 17:56N 33°12' W 010°34'912.0
2017-Aug-24 17:13N 33°18' W 010°27'211.9
2017-Aug-24 17:00N 33°20' W 010°25'611.9
2017-Aug-24 16:30N 33°24' W 010°20'611.8
2017-Aug-24 16:00N 33°28' W 010°15'611.9
2017-Aug-24 15:29N 33°32' W 010°10'711.8
2017-Aug-24 14:55N 33°37' W 010°04'911.6
2017-Aug-24 14:11N 33°43' W 009°57'211.6
2017-Aug-24 14:00N 33°45' W 009°55'911.4
2017-Aug-24 13:15N 33°51' W 009°48'2 7.5
2017-Aug-24 13:00N 33°52' W 009°46'1610.7
2017-Aug-24 11:30N 34°04' W 009°33'910.7
2017-Aug-24 10:40N 34°10' W 009°25'310.9
2017-Aug-24 10:21N 34°12' W 009°22'510.8
2017-Aug-24 09:55N 34°16' W 009°18'510.9
2017-Aug-24 09:30N 34°19' W 009°14'610.8
2017-Aug-24 08:57N 34°23' W 009°09'510.6
2017-Aug-24 08:30N 34°26' W 009°05'810.8
2017-Aug-24 07:48N 34°32' W 008°59'510.8
2017-Aug-24 07:20N 34°35' W 008°54'710.9
2017-Aug-24 06:43N 34°40' W 008°48'1410.7
2017-Aug-24 05:23N 34°50' W 008°36'410.9
2017-Aug-24 05:00N 34°53' W 008°33'611.1
2017-Aug-24 04:30N 34°57' W 008°28'611.1
2017-Aug-24 04:00N 35°01' W 008°23'511.0
2017-Aug-24 03:30N 35°05' W 008°18'610.9
2017-Aug-24 02:59N 35°09' W 008°14'510.9
2017-Aug-24 02:30N 35°13' W 008°09'611.2
2017-Aug-24 02:00N 35°17' W 008°04'611.5
2017-Aug-24 01:29N 35°21' W 007°59'611.5
2017-Aug-24 01:00N 35°25' W 007°54'611.4
2017-Aug-24 00:29N 35°29' W 007°49'511.3
2017-Aug-24 00:00N 35°33' W 007°45'711.5
2017-Aug-23 23:25N 35°38' W 007°39'611.4
2017-Aug-23 22:55N 35°42' W 007°34'711.9
2017-Aug-23 22:23N 35°46' W 007°28'511.2
2017-Aug-23 21:56N 35°50' W 007°24'1911.3
2017-Aug-23 20:17N 36°03' W 007°08'  
2017-Aug-19 04:00N 36°35' W 006°20'0 0.0
2017-Aug-19 03:30N 36°35' W 006°20'253 5.0
2017-Aug-17 01:14N 36°38' W 001°05'412.1
2017-Aug-17 00:53N 36°39' W 000°60'1112.3
2017-Aug-17 00:01N 36°41' W 000°46'012.4
2017-Aug-16 23:59N 36°41' W 000°46'612.5
2017-Aug-16 23:29N 36°42' W 000°39'3512.4
2017-Aug-16 20:41N 36°50' E 000°04'312.2
2017-Aug-16 20:27N 36°50' E 000°07'712.3
2017-Aug-16 19:55N 36°52' E 000°15'511.9
2017-Aug-16 19:28N 36°53' E 000°22'511.4
2017-Aug-16 19:00N 36°54' E 000°28'611.3
2017-Aug-16 18:30N 36°55' E 000°35'2811.7
2017-Aug-16 16:04N 37°02' E 001°10'312.4
2017-Aug-16 15:50N 37°02' E 001°13'  

Dump ship's entire track history